createdAt,value
2022-10-07T00:00:52.431Z,12.40
2022-10-07T00:03:20.306Z,12.40
2022-10-07T00:05:47.361Z,12.30
2022-10-07T00:08:14.097Z,12.30
2022-10-07T00:10:43.040Z,12.30
2022-10-07T00:13:11.965Z,12.30
2022-10-07T00:15:39.020Z,12.20
2022-10-07T00:18:05.887Z,12.20
2022-10-07T00:20:39.195Z,12.20
2022-10-07T00:23:07.688Z,12.20
2022-10-07T00:25:37.761Z,12.20
2022-10-07T00:28:05.277Z,12.10
2022-10-07T00:30:32.153Z,12.10
2022-10-07T00:32:58.817Z,12.10
2022-10-07T00:35:25.428Z,12.00
2022-10-07T00:37:52.052Z,12.00
2022-10-07T00:40:18.660Z,12.00
2022-10-07T00:42:47.409Z,12.00
2022-10-07T00:45:17.651Z,12.00
2022-10-07T00:47:48.725Z,12.00
2022-10-07T00:50:25.893Z,11.90
2022-10-07T00:52:58.756Z,11.90
2022-10-07T00:55:28.052Z,11.90
2022-10-07T00:58:01.285Z,11.90
2022-10-07T01:00:28.084Z,11.90
2022-10-07T01:02:56.927Z,11.80
2022-10-07T01:05:24.797Z,11.80
2022-10-07T01:07:53.993Z,11.80
2022-10-07T01:10:24.236Z,11.80
2022-10-07T01:13:17.403Z,11.70
2022-10-07T01:15:58.000Z,11.70
2022-10-07T01:18:42.139Z,11.70
2022-10-07T01:21:22.824Z,11.70
2022-10-07T01:24:29.609Z,11.70
2022-10-07T01:27:06.059Z,11.60
2022-10-07T01:29:41.019Z,11.60
2022-10-07T01:32:21.770Z,11.60
2022-10-07T01:34:51.739Z,11.60
2022-10-07T01:37:22.498Z,11.50
2022-10-07T01:39:53.645Z,11.50
2022-10-07T01:42:21.350Z,11.50
2022-10-07T01:44:53.633Z,11.50
2022-10-07T01:47:20.366Z,11.50
2022-10-07T01:49:48.093Z,11.40
2022-10-07T01:52:42.315Z,11.40
2022-10-07T01:55:38.060Z,11.40
2022-10-07T01:58:26.700Z,11.40
2022-10-07T02:01:18.816Z,11.40
2022-10-07T02:04:04.614Z,11.40
2022-10-07T02:06:49.970Z,11.30
2022-10-07T02:09:33.130Z,11.30
2022-10-07T02:12:17.523Z,11.30
2022-10-07T02:15:05.848Z,11.30
2022-10-07T02:17:37.386Z,11.30
2022-10-07T02:20:10.022Z,11.30
2022-10-07T02:22:40.184Z,11.20
2022-10-07T02:25:07.979Z,11.20
2022-10-07T02:27:37.312Z,11.20
2022-10-07T02:30:13.567Z,11.20
2022-10-07T02:32:48.776Z,11.10
2022-10-07T02:35:23.286Z,11.10
2022-10-07T02:37:54.133Z,11.10
2022-10-07T02:40:23.359Z,11.10
2022-10-07T02:43:00.949Z,11.10
2022-10-07T02:45:45.987Z,11.10
2022-10-07T02:48:21.256Z,11.10
2022-10-07T02:50:55.248Z,11.00
2022-10-07T02:53:26.422Z,11.00
2022-10-07T02:55:54.686Z,11.00
2022-10-07T02:58:25.479Z,11.00
2022-10-07T03:01:00.866Z,11.00
2022-10-07T03:03:30.891Z,10.90
2022-10-07T03:06:05.398Z,10.90
2022-10-07T03:08:33.196Z,10.90
2022-10-07T03:11:00.908Z,10.90
2022-10-07T03:13:30.240Z,10.90
2022-10-07T03:16:05.825Z,10.90
2022-10-07T03:18:32.930Z,10.90
2022-10-07T03:21:29.382Z,10.90
2022-10-07T03:24:05.046Z,10.90
2022-10-07T03:26:39.680Z,10.80
2022-10-07T03:29:10.194Z,10.80
2022-10-07T03:31:37.361Z,10.80
2022-10-07T03:34:03.999Z,10.80
2022-10-07T03:36:33.071Z,10.70
2022-10-07T03:39:00.893Z,10.70
2022-10-07T03:41:28.982Z,10.70
2022-10-07T03:43:59.364Z,10.70
2022-10-07T03:46:29.278Z,10.70
2022-10-07T03:48:58.405Z,10.60
2022-10-07T03:51:25.896Z,10.70
2022-10-07T03:53:58.368Z,10.60
2022-10-07T03:56:29.259Z,10.60
2022-10-07T03:58:56.799Z,10.60
2022-10-07T04:01:24.721Z,10.60
2022-10-07T04:03:58.012Z,10.60
2022-10-07T04:06:25.031Z,10.50
2022-10-07T04:08:57.600Z,10.50
2022-10-07T04:11:24.990Z,10.50
2022-10-07T04:13:59.207Z,10.50
2022-10-07T04:16:26.413Z,10.50
2022-10-07T04:18:59.270Z,10.50
2022-10-07T04:21:28.188Z,10.50
2022-10-07T04:23:54.885Z,10.50
2022-10-07T04:26:22.694Z,10.40
2022-10-07T04:28:51.440Z,10.40
2022-10-07T04:31:21.045Z,10.40
2022-10-07T04:33:55.433Z,10.40
2022-10-07T04:36:27.234Z,10.40
2022-10-07T04:39:11.972Z,10.40
2022-10-07T04:41:45.001Z,10.40
2022-10-07T04:44:16.877Z,10.40
2022-10-07T04:46:51.864Z,10.40
2022-10-07T04:49:19.347Z,10.40
2022-10-07T04:51:47.369Z,10.40
2022-10-07T04:54:14.633Z,10.40
2022-10-07T04:56:49.815Z,10.40
2022-10-07T04:59:23.483Z,10.40
2022-10-07T05:01:51.094Z,10.30
2022-10-07T05:04:17.827Z,10.40
2022-10-07T05:06:45.393Z,10.40
2022-10-07T05:09:12.543Z,10.30
2022-10-07T05:11:43.733Z,10.30
2022-10-07T05:14:20.382Z,10.30
2022-10-07T05:16:48.861Z,10.30
2022-10-07T05:19:16.099Z,10.30
2022-10-07T05:21:43.913Z,10.30
2022-10-07T05:24:12.458Z,10.30
2022-10-07T05:26:39.460Z,10.30
2022-10-07T05:29:08.195Z,10.30
2022-10-07T05:31:39.728Z,10.30
2022-10-07T05:34:08.010Z,10.30
2022-10-07T05:36:38.752Z,10.30
2022-10-07T05:39:06.965Z,10.30
2022-10-07T05:41:45.621Z,10.30
2022-10-07T05:44:17.561Z,10.30
2022-10-07T05:46:44.826Z,10.30
2022-10-07T05:49:12.935Z,10.30
2022-10-07T05:51:40.800Z,10.30
2022-10-07T05:54:08.441Z,10.30
2022-10-07T05:56:39.217Z,10.30
2022-10-07T05:59:06.077Z,10.30
2022-10-07T06:01:32.878Z,10.30
2022-10-07T06:04:07.843Z,10.30
2022-10-07T06:06:36.688Z,10.40
2022-10-07T06:09:26.300Z,10.30
2022-10-07T06:12:12.039Z,10.30
2022-10-07T06:14:39.508Z,10.30
2022-10-07T06:17:07.933Z,10.40
2022-10-07T06:19:38.501Z,10.30
2022-10-07T06:22:05.598Z,10.40
2022-10-07T06:24:35.184Z,10.40
2022-10-07T06:27:02.694Z,10.40
2022-10-07T06:29:30.135Z,10.40
2022-10-07T06:31:57.117Z,10.40
2022-10-07T06:34:23.753Z,10.40
2022-10-07T06:36:50.660Z,10.50
2022-10-07T06:39:17.841Z,10.50
2022-10-07T06:41:46.556Z,10.50
2022-10-07T06:44:42.955Z,10.50
2022-10-07T06:47:12.113Z,10.60
2022-10-07T06:49:40.907Z,10.60
2022-10-07T06:52:07.598Z,10.60
2022-10-07T06:54:35.190Z,10.70
2022-10-07T06:57:01.957Z,10.70
2022-10-07T06:59:29.450Z,10.70
2022-10-07T07:02:11.726Z,10.80
2022-10-07T07:04:40.693Z,10.80
2022-10-07T07:07:07.610Z,10.90
2022-10-07T07:09:34.302Z,10.90
2022-10-07T07:12:01.130Z,10.90
2022-10-07T07:14:35.658Z,11.00
2022-10-07T07:17:06.859Z,11.00
2022-10-07T07:19:33.970Z,11.10
2022-10-07T07:22:00.769Z,11.20
2022-10-07T07:24:28.226Z,11.20
2022-10-07T07:26:55.027Z,11.30
2022-10-07T07:29:24.221Z,11.40
2022-10-07T07:31:55.285Z,11.50
2022-10-07T07:34:24.826Z,11.60
2022-10-07T07:36:52.402Z,11.70
2022-10-07T07:39:22.021Z,11.80
2022-10-07T07:41:55.681Z,11.90
2022-10-07T07:44:25.582Z,12.00
2022-10-07T07:46:59.261Z,12.10
2022-10-07T07:49:27.704Z,12.20
2022-10-07T07:51:54.776Z,12.30
2022-10-07T07:54:27.259Z,12.40
2022-10-07T07:56:55.304Z,12.50
2022-10-07T07:59:25.046Z,12.60
2022-10-07T08:01:53.027Z,12.70
2022-10-07T08:04:20.032Z,12.80
2022-10-07T08:06:47.529Z,13.00
2022-10-07T08:09:14.231Z,13.00
2022-10-07T08:11:46.510Z,13.20
2022-10-07T08:14:16.621Z,13.30
2022-10-07T08:16:45.126Z,13.40
2022-10-07T08:19:12.345Z,13.50
2022-10-07T08:21:39.646Z,13.50
2022-10-07T08:24:11.503Z,13.60
2022-10-07T08:26:39.380Z,13.70
2022-10-07T08:29:09.248Z,13.80
2022-10-07T08:31:36.079Z,13.90
2022-10-07T08:34:05.094Z,13.90
2022-10-07T08:36:33.193Z,14.00
2022-10-07T08:39:01.676Z,14.10
2022-10-07T08:41:34.155Z,14.20
2022-10-07T08:44:26.553Z,14.30
2022-10-07T08:47:02.185Z,14.40
2022-10-07T08:49:38.444Z,14.40
2022-10-07T08:52:45.677Z,14.50
2022-10-07T08:55:19.485Z,14.60
2022-10-07T08:58:24.961Z,14.70
2022-10-07T09:01:15.313Z,14.80
2022-10-07T09:04:15.141Z,14.80
2022-10-07T09:07:08.897Z,14.90
2022-10-07T09:10:05.158Z,15.00
2022-10-07T09:12:37.057Z,15.00
2022-10-07T09:15:06.762Z,15.20
2022-10-07T09:17:44.797Z,15.20
2022-10-07T09:20:19.918Z,15.30
2022-10-07T09:22:57.260Z,15.40
2022-10-07T09:25:26.312Z,15.50
2022-10-07T09:27:54.367Z,15.60
2022-10-07T09:30:27.738Z,15.70
2022-10-07T09:32:55.288Z,15.80
2022-10-07T09:35:24.548Z,15.80
2022-10-07T09:38:10.221Z,15.90
2022-10-07T09:41:01.128Z,16.00
2022-10-07T09:43:29.661Z,16.10
2022-10-07T09:45:59.815Z,16.20
2022-10-07T09:48:33.207Z,16.30
2022-10-07T09:51:16.543Z,16.30
2022-10-07T09:54:04.757Z,16.40
2022-10-07T09:56:46.316Z,16.50
2022-10-07T09:59:28.272Z,16.60
2022-10-07T10:02:01.765Z,16.70
2022-10-07T10:04:35.445Z,16.70
2022-10-07T10:07:16.277Z,16.80
2022-10-07T10:09:50.349Z,16.90
2022-10-07T10:12:19.090Z,17.00
2022-10-07T10:14:55.551Z,17.00
2022-10-07T10:17:38.483Z,17.10
2022-10-07T10:20:31.465Z,17.10
2022-10-07T10:23:00.380Z,17.20
2022-10-07T10:26:17.480Z,17.30
2022-10-07T10:29:08.045Z,17.30
2022-10-07T10:31:47.877Z,17.40
2022-10-07T10:34:26.733Z,17.40
2022-10-07T10:37:20.331Z,17.50
2022-10-07T10:40:01.908Z,17.60
2022-10-07T10:42:57.632Z,17.60
2022-10-07T10:45:53.853Z,17.70
2022-10-07T10:48:39.338Z,17.80
2022-10-07T10:51:34.236Z,17.80
2022-10-07T10:54:22.036Z,17.80
2022-10-07T10:57:04.847Z,17.90
2022-10-07T10:59:42.438Z,18.00
2022-10-07T11:02:38.509Z,18.00
2022-10-07T11:05:13.511Z,18.10
2022-10-07T11:07:45.601Z,18.10
2022-10-07T11:10:25.442Z,18.30
2022-10-07T11:13:01.883Z,18.20
2022-10-07T11:15:39.371Z,18.20
2022-10-07T11:18:11.873Z,18.30
2022-10-07T11:20:48.298Z,18.30
2022-10-07T11:23:41.522Z,18.40
2022-10-07T11:26:20.456Z,18.50
2022-10-07T11:28:50.362Z,18.50
2022-10-07T11:31:37.338Z,18.60
2022-10-07T11:34:18.829Z,18.60
2022-10-07T11:37:03.666Z,18.70
2022-10-07T11:39:30.536Z,18.70
2022-10-07T11:42:23.338Z,18.70
2022-10-07T11:45:05.821Z,18.80
2022-10-07T11:47:35.201Z,18.90
2022-10-07T11:50:08.694Z,18.90
2022-10-07T11:52:41.774Z,18.90
2022-10-07T11:55:24.802Z,19.00
2022-10-07T11:57:57.453Z,19.00
2022-10-07T12:00:35.631Z,19.10
2022-10-07T12:03:17.237Z,19.20
2022-10-07T12:05:49.910Z,19.20
2022-10-07T12:08:35.528Z,19.30
2022-10-07T12:11:11.383Z,19.30
2022-10-07T12:13:46.625Z,19.40
2022-10-07T12:16:30.046Z,19.40
2022-10-07T12:19:22.985Z,19.50
2022-10-07T12:21:59.358Z,19.50
2022-10-07T12:24:35.854Z,19.60
2022-10-07T12:27:26.650Z,19.60
2022-10-07T12:30:04.349Z,19.70
2022-10-07T12:32:51.000Z,19.70
2022-10-07T12:35:32.276Z,19.70
2022-10-07T12:38:14.225Z,19.80
2022-10-07T12:40:44.098Z,19.90
2022-10-07T12:43:24.162Z,19.90
2022-10-07T12:45:52.412Z,20.00
2022-10-07T12:48:22.755Z,20.00
2022-10-07T12:50:53.426Z,20.10
2022-10-07T12:53:27.785Z,20.20
2022-10-07T12:55:57.859Z,20.20
2022-10-07T12:59:16.071Z,20.30
2022-10-07T13:02:06.544Z,20.40
2022-10-07T13:05:13.333Z,20.50
2022-10-07T13:08:20.132Z,20.60
2022-10-07T13:11:17.957Z,20.70
2022-10-07T13:13:50.331Z,20.70
2022-10-07T13:16:29.914Z,20.80
2022-10-07T13:19:19.798Z,20.80
2022-10-07T13:21:56.061Z,20.90
2022-10-07T13:24:26.749Z,21.00
2022-10-07T13:26:54.494Z,21.00
2022-10-07T13:29:44.734Z,21.10
2022-10-07T13:32:23.616Z,21.20
2022-10-07T13:34:53.060Z,21.30
2022-10-07T13:37:31.185Z,21.60
2022-10-07T13:40:17.558Z,22.20
2022-10-07T13:42:44.586Z,23.00
2022-10-07T13:45:18.429Z,24.10
2022-10-07T13:47:46.939Z,25.10
2022-10-07T13:50:20.041Z,26.20
2022-10-07T13:52:49.647Z,27.40
2022-10-07T13:55:25.785Z,28.50
2022-10-07T13:57:57.081Z,29.50
2022-10-07T14:00:28.158Z,30.40
2022-10-07T14:02:54.802Z,31.20
2022-10-07T14:05:25.717Z,31.90
2022-10-07T14:07:58.042Z,32.50
2022-10-07T14:10:30.052Z,33.10
2022-10-07T14:13:07.238Z,33.60
2022-10-07T14:15:36.372Z,34.00
2022-10-07T14:18:07.972Z,34.40
2022-10-07T14:20:38.685Z,34.70
2022-10-07T14:23:28.221Z,34.90
2022-10-07T14:25:59.876Z,35.20
2022-10-07T14:28:32.798Z,35.40
2022-10-07T14:31:26.907Z,35.70
2022-10-07T14:34:35.198Z,35.70
2022-10-07T14:37:22.559Z,35.70
2022-10-07T14:39:51.550Z,35.70
2022-10-07T14:42:32.073Z,35.60
2022-10-07T14:45:10.058Z,35.50
2022-10-07T14:47:41.293Z,35.30
2022-10-07T14:50:08.272Z,35.10
2022-10-07T14:52:44.267Z,34.90
2022-10-07T14:55:28.829Z,34.80
2022-10-07T14:57:55.780Z,34.80
2022-10-07T15:00:25.838Z,34.80
2022-10-07T15:02:56.804Z,35.00
2022-10-07T15:05:23.648Z,35.20
2022-10-07T15:07:50.702Z,35.40
2022-10-07T15:10:20.883Z,35.50
2022-10-07T15:12:49.449Z,35.70
2022-10-07T15:15:17.527Z,35.90
2022-10-07T15:17:44.285Z,36.10
2022-10-07T15:20:14.021Z,36.40
2022-10-07T15:22:40.948Z,36.40
2022-10-07T15:25:09.573Z,36.40
2022-10-07T15:27:38.582Z,36.40
2022-10-07T15:30:07.091Z,36.20
2022-10-07T15:32:34.040Z,36.00
2022-10-07T15:35:12.360Z,35.80
2022-10-07T15:37:40.776Z,35.60
2022-10-07T15:40:08.062Z,35.10
2022-10-07T15:42:34.656Z,34.80
2022-10-07T15:45:01.261Z,34.30
2022-10-07T15:47:30.272Z,33.90
2022-10-07T15:49:58.056Z,33.70
2022-10-07T15:52:25.003Z,33.60
2022-10-07T15:54:54.203Z,33.50
2022-10-07T15:57:24.091Z,33.30
2022-10-07T15:59:54.555Z,33.10
2022-10-07T16:02:24.697Z,32.80
2022-10-07T16:04:52.239Z,32.40
2022-10-07T16:07:23.505Z,31.80
2022-10-07T16:09:58.285Z,31.20
2022-10-07T16:12:27.332Z,30.60
2022-10-07T16:14:55.965Z,29.90
2022-10-07T16:17:22.558Z,29.30
2022-10-07T16:19:49.171Z,28.70
2022-10-07T16:22:17.692Z,28.10
2022-10-07T16:24:44.282Z,27.60
2022-10-07T16:27:13.158Z,27.10
2022-10-07T16:30:01.437Z,26.60
2022-10-07T16:32:30.480Z,26.20
2022-10-07T16:35:09.509Z,25.80
2022-10-07T16:37:36.114Z,25.40
2022-10-07T16:40:03.081Z,24.90
2022-10-07T16:42:29.721Z,24.60
2022-10-07T16:45:01.463Z,24.20
2022-10-07T16:47:28.029Z,23.90
2022-10-07T16:49:57.010Z,23.50
2022-10-07T16:52:25.385Z,23.20
2022-10-07T16:54:54.149Z,22.90
2022-10-07T16:57:26.093Z,22.50
2022-10-07T16:59:58.232Z,22.20
2022-10-07T17:02:31.846Z,22.00
2022-10-07T17:05:04.031Z,21.70
2022-10-07T17:07:30.630Z,21.40
2022-10-07T17:10:02.519Z,21.10
2022-10-07T17:12:31.525Z,20.80
2022-10-07T17:15:03.825Z,20.60
2022-10-07T17:17:30.372Z,20.40
2022-10-07T17:19:57.162Z,20.20
2022-10-07T17:22:28.153Z,19.90
2022-10-07T17:24:54.790Z,19.70
2022-10-07T17:27:21.513Z,19.50
2022-10-07T17:29:55.541Z,19.30
2022-10-07T17:32:22.240Z,19.00
2022-10-07T17:34:48.878Z,18.90
2022-10-07T17:37:15.694Z,18.70
2022-10-07T17:39:43.856Z,18.50
2022-10-07T17:42:10.599Z,18.30
2022-10-07T17:44:40.938Z,18.20
2022-10-07T17:47:10.018Z,18.10
2022-10-07T17:49:39.509Z,17.90
2022-10-07T17:52:08.557Z,17.80
2022-10-07T17:54:39.064Z,17.70
2022-10-07T17:57:05.678Z,17.60
2022-10-07T17:59:32.341Z,17.50
2022-10-07T18:02:07.363Z,17.40
2022-10-07T18:04:39.556Z,17.30
2022-10-07T18:07:08.516Z,17.20
2022-10-07T18:09:37.262Z,17.20
2022-10-07T18:12:24.375Z,17.10
2022-10-07T18:15:09.778Z,17.00
2022-10-07T18:17:37.294Z,16.90
2022-10-07T18:20:15.260Z,16.80
2022-10-07T18:22:44.661Z,16.80
2022-10-07T18:25:14.635Z,16.70
2022-10-07T18:27:42.448Z,16.60
2022-10-07T18:30:13.391Z,16.60
2022-10-07T18:32:40.033Z,16.50
2022-10-07T18:35:06.826Z,16.40
2022-10-07T18:37:35.259Z,16.40
2022-10-07T18:40:04.973Z,16.30
2022-10-07T18:42:39.494Z,16.30
2022-10-07T18:45:06.562Z,16.30
2022-10-07T18:47:33.254Z,16.20
2022-10-07T18:50:07.196Z,16.10
2022-10-07T18:52:33.801Z,16.10
2022-10-07T18:55:00.842Z,16.10
2022-10-07T18:57:32.799Z,16.00
2022-10-07T19:00:02.374Z,16.00
2022-10-07T19:02:28.966Z,16.00
2022-10-07T19:05:05.836Z,15.90
2022-10-07T19:07:34.888Z,15.80
2022-10-07T19:10:15.225Z,15.80
2022-10-07T19:13:02.714Z,15.80
2022-10-07T19:15:38.667Z,15.70
2022-10-07T19:18:07.075Z,15.60
2022-10-07T19:20:36.727Z,15.60
2022-10-07T19:23:03.578Z,15.60
2022-10-07T19:25:51.131Z,15.50
2022-10-07T19:28:25.535Z,15.50
2022-10-07T19:30:57.107Z,15.40
2022-10-07T19:33:24.155Z,15.40
2022-10-07T19:35:57.417Z,15.30
2022-10-07T19:38:27.040Z,15.30
2022-10-07T19:40:56.383Z,15.30
2022-10-07T19:43:23.187Z,15.20
2022-10-07T19:45:54.366Z,15.20
2022-10-07T19:48:22.078Z,15.20
2022-10-07T19:50:57.475Z,15.10
2022-10-07T19:53:24.020Z,15.10
2022-10-07T19:55:51.816Z,15.10
2022-10-07T19:58:21.313Z,15.10
2022-10-07T20:01:04.304Z,15.10
2022-10-07T20:03:31.094Z,15.10
2022-10-07T20:06:05.379Z,15.00
2022-10-07T20:08:34.202Z,15.00
2022-10-07T20:11:12.221Z,15.00
2022-10-07T20:13:40.021Z,15.00
2022-10-07T20:16:09.907Z,15.00
2022-10-07T20:18:38.095Z,14.90
2022-10-07T20:21:13.154Z,14.90
2022-10-07T20:23:41.532Z,14.90
2022-10-07T20:26:19.550Z,14.90
2022-10-07T20:28:47.795Z,14.90
2022-10-07T20:31:17.775Z,14.80
2022-10-07T20:33:47.254Z,14.80
2022-10-07T20:36:16.755Z,14.70
2022-10-07T20:39:02.369Z,14.70
2022-10-07T20:41:47.981Z,14.70
2022-10-07T20:44:16.703Z,14.70
2022-10-07T20:46:43.746Z,14.70
2022-10-07T20:49:22.557Z,14.70
2022-10-07T20:51:57.627Z,14.80
2022-10-07T20:54:25.811Z,14.80
2022-10-07T20:56:59.319Z,14.80
2022-10-07T20:59:30.719Z,14.80
2022-10-07T21:02:00.653Z,14.90
2022-10-07T21:04:29.642Z,14.90
2022-10-07T21:06:58.879Z,14.90
2022-10-07T21:09:26.294Z,14.90
2022-10-07T21:11:57.035Z,14.90
2022-10-07T21:14:23.702Z,14.90
2022-10-07T21:16:53.331Z,14.90
2022-10-07T21:22:31.185Z,15.00
2022-10-07T21:24:58.545Z,14.90
2022-10-07T21:27:25.119Z,14.90
2022-10-07T21:29:51.745Z,14.90
2022-10-07T21:32:18.641Z,15.00
2022-10-07T21:34:47.529Z,15.00
2022-10-07T21:37:14.133Z,15.00
2022-10-07T21:39:41.994Z,15.00
2022-10-07T21:42:11.092Z,15.00
2022-10-07T21:44:37.859Z,15.00
2022-10-07T21:47:04.890Z,15.00
2022-10-07T21:49:31.477Z,15.00
2022-10-07T21:52:00.123Z,15.00
2022-10-07T21:54:27.380Z,15.00
2022-10-07T21:56:54.030Z,15.00
2022-10-07T21:59:20.724Z,15.00
2022-10-07T22:01:47.346Z,15.00
2022-10-07T22:04:17.368Z,15.00
2022-10-07T22:07:05.269Z,15.00
2022-10-07T22:09:32.232Z,15.00
2022-10-07T22:11:59.046Z,15.00
2022-10-07T22:14:25.735Z,15.00
2022-10-07T22:16:52.333Z,15.00
2022-10-07T22:19:19.037Z,15.00
2022-10-07T22:21:45.834Z,15.00
2022-10-07T22:24:12.846Z,15.00
2022-10-07T22:26:44.235Z,15.00
2022-10-07T22:29:14.906Z,14.90
2022-10-07T22:31:41.977Z,14.90
2022-10-07T22:34:08.950Z,14.90
2022-10-07T22:36:44.002Z,14.90
2022-10-07T22:39:10.621Z,14.90
2022-10-07T22:41:37.229Z,14.80
2022-10-07T22:44:03.888Z,14.90
2022-10-07T22:46:30.498Z,14.90
2022-10-07T22:48:58.203Z,14.80
2022-10-07T22:51:28.121Z,14.80
2022-10-07T22:53:56.034Z,14.80
2022-10-07T22:56:27.843Z,14.80
2022-10-07T22:58:59.701Z,14.80
2022-10-07T23:01:31.307Z,14.80
2022-10-07T23:04:04.491Z,14.70
2022-10-07T23:06:35.338Z,14.70
2022-10-07T23:09:03.592Z,14.70
2022-10-07T23:11:30.829Z,14.70
2022-10-07T23:13:57.464Z,14.60
2022-10-07T23:16:32.326Z,14.60
2022-10-07T23:18:59.519Z,14.60
2022-10-07T23:21:28.381Z,14.50
2022-10-07T23:24:06.796Z,14.50
2022-10-07T23:26:34.955Z,14.50
2022-10-07T23:29:05.068Z,14.50
2022-10-07T23:31:32.874Z,14.50
2022-10-07T23:34:01.056Z,14.50
2022-10-07T23:36:28.529Z,14.50
2022-10-07T23:38:55.458Z,14.40
2022-10-07T23:41:27.219Z,14.40
2022-10-07T23:43:56.356Z,14.40
2022-10-07T23:46:24.812Z,14.40
2022-10-07T23:48:51.896Z,14.40
2022-10-07T23:51:23.102Z,14.30
2022-10-07T23:53:50.080Z,14.30
2022-10-07T23:56:18.513Z,14.30
2022-10-07T23:58:47.577Z,14.30
